Terminal Aerodrome Forecast
Issued by NWS

Home | Current Version | Previous Version | Graphics & Text | Print | Product List | Glossary On
Versions: 1 2 3 4 5 6 7 8 9 10 11 12 13 14 15 16 17 18 19 20 21 22 23 24 25 26
000
FTUS45 KGGW 170520
TAFGDV
TAF
KGDV 170520Z 1706/1806 14005KT P6SM FEW120
     FM171700 27009KT P6SM SCT170
     FM172100 29015KT P6SM SCT140
     FM180200 33009KT P6SM FEW110=

USA.gov is the U.S. government's official web portal to all federal, state and local government web resources and services.